| time (UTC) | temp F | wind direction | speed MPH | gust MPH | rain 1hr in | rain 24hr in | rain mn in | humidity % | barometer mb |
| 20260904013037 | 56 | 289 | 1.0 | 5.0 | 0.00 | 0.09 | 0.00 | 73 | 1011.4 |
| 20260904011537 | 56 | 283 | 3.0 | 10.0 | 0.00 | 0.09 | 0.00 | 72 | 1011.3 |
| 20260904010039 | 57 | 293 | 5.0 | 11.0 | 0.00 | 0.09 | 0.00 | 71 | 1011.2 |
| 20260904004536 | 58 | 289 | 6.0 | 12.0 | 0.00 | 0.09 | 0.00 | 70 | 1011.2 |
| 20260904003036 | 58 | 290 | 8.0 | 16.0 | 0.00 | 0.09 | 0.00 | 69 | 1011.1 |
| 20260904001529 | 59 | 294 | 7.0 | 18.0 | 0.00 | 0.09 | 0.00 | 66 | 1011.2 |
| 20260904000037 | 60 | 297 | 6.0 | 14.0 | 0.00 | 0.09 | 0.00 | 63 | 1011.1 |
| 20260903234613 | 61 | 300 | 6.0 | 13.0 | 0.00 | 0.09 | 0.00 | 59 | 1011.0 |
| 20260903233033 | 63 | 310 | 3.0 | 11.0 | 0.00 | 0.09 | 0.00 | 56 | 1011.1 |
| 20260903231607 | 66 | 301 | 3.0 | 9.0 | 0.00 | 0.09 | 0.00 | 51 | 1011.0 |
| 20260903230112 | 68 | 262 | 2.0 | 12.0 | 0.00 | 0.09 | 0.00 | 47 | 1010.9 |
| 20260903224530 | 67 | 143 | 0.0 | 6.0 | 0.00 | 0.09 | 0.00 | 47 | 1011.0 |
| 20260903223153 | 67 | 136 | 1.0 | 8.0 | 0.00 | 0.09 | 0.00 | 47 | 1011.3 |
| 20260903221530 | 68 | 155 | 2.0 | 10.0 | 0.00 | 0.09 | 0.00 | 48 | 1011.3 |
| 20260903220037 | 67 | 163 | 3.0 | 12.0 | 0.00 | 0.09 | 0.00 | 50 | 1011.5 |
| 20260903214535 | 65 | 188 | 3.0 | 9.0 | 0.00 | 0.09 | 0.00 | 53 | 1011.6 |
| 20260903213033 | 67 | 233 | 2.0 | 10.0 | 0.00 | 0.09 | 0.00 | 52 | 1011.6 |
| 20260903211541 | 67 | 220 | 1.0 | 7.0 | 0.00 | 0.09 | 0.00 | 54 | 1011.5 |
| 20260903210036 | 68 | 279 | 3.0 | 10.0 | 0.00 | 0.09 | 0.00 | 54 | 1011.6 |
| 20260903204536 | 66 | 214 | 4.0 | 14.0 | 0.00 | 0.09 | 0.00 | 52 | 1011.8 |
| 20260903203036 | 67 | 186 | 5.0 | 14.0 | 0.00 | 0.09 | 0.00 | 53 | 1011.8 |
| 20260903200035 | 65 | 173 | 8.0 | 17.0 | 0.00 | 0.09 | 0.00 | 61 | 1012.2 |
| 20260903193032 | 61 | 176 | 6.0 | 13.0 | 0.00 | 0.09 | 0.00 | 73 | 1012.7 |
| 20260903191537 | 59 | 162 | 2.0 | 10.0 | 0.00 | 0.09 | 0.00 | 82 | 1013.0 |
| 20260903184532 | 57 | 332 | 1.0 | 6.0 | 0.00 | 0.09 | 0.00 | 86 | 1013.2 |
| 20260903183031 | 57 | 319 | 2.0 | 7.0 | 0.00 | 0.09 | 0.00 | 86 | 1013.2 |
| 20260903181538 | 56 | 318 | 1.0 | 7.0 | 0.00 | 0.09 | 0.00 | 86 | 1013.2 |
| 20260903174530 | 55 | 323 | 1.0 | 6.0 | 0.00 | 0.09 | 0.00 | 89 | 1013.1 |
| 20260903173036 | 55 | 328 | 0.0 | 6.0 | 0.00 | 0.09 | 0.00 | 89 | 1013.1 |
| 20260903170031 | 54 | 301 | 0.0 | 5.0 | 0.00 | 0.09 | 0.00 | 90 | 1013.2 |
| 20260903164535 | 53 | 311 | 1.0 | 6.0 | 0.00 | 0.09 | 0.00 | 90 | 1013.3 |
| 20260903163032 | 54 | 247 | 2.0 | 5.0 | 0.00 | 0.09 | 0.00 | 91 | 1013.3 |
| 20260903160039 | 54 | 242 | 1.0 | 4.0 | 0.00 | 0.09 | 0.00 | 93 | 1013.3 |
| 20260903154530 | 51 | 267 | 0.0 | 4.0 | 0.00 | 0.09 | 0.00 | 94 | 1013.2 |
| 20260903153036 | 49 | 345 | 0.0 | 0.0 | 0.00 | 0.09 | 0.00 | 95 | 1013.2 |
| 20260903151538 | 49 | 360 | 0.0 | 0.0 | 0.00 | 0.09 | 0.00 | 95 | 1013.2 |
| 20260903150036 | 49 | 45 | 0.0 | 0.0 | 0.00 | 0.09 | 0.00 | 95 | 1013.3 |
| 20260903144536 | 47 | 65 | 0.0 | 2.0 | 0.00 | 0.09 | 0.00 | 95 | 1013.2 |
| 20260903143036 | 46 | 145 | 1.0 | 5.0 | 0.00 | 0.09 | 0.00 | 95 | 1013.1 |
| 20260903141535 | 45 | 181 | 3.0 | 5.0 | 0.00 | 0.09 | 0.00 | 95 | 1013.0 |
| 20260903140037 | 45 | 201 | 2.0 | 5.0 | 0.00 | 0.09 | 0.00 | 95 | 1012.9 |
| 20260903134537 | 45 | 175 | 3.0 | 5.0 | 0.00 | 0.09 | 0.00 | 95 | 1012.8 |
| 20260903131535 | 45 | 187 | 1.0 | 5.0 | 0.00 | 0.09 | 0.00 | 95 | 1012.7 |
| 20260903130037 | 45 | 219 | 1.0 | 6.0 | 0.00 | 0.09 | 0.00 | 95 | 1012.7 |
| 20260903124538 | 44 | 179 | 4.0 | 7.0 | 0.00 | 0.09 | 0.00 | 95 | 1012.7 |
| 20260903123037 | 44 | 193 | 2.0 | 4.0 | 0.00 | 0.09 | 0.00 | 95 | 1012.7 |
| 20260903121535 | 44 | 163 | 3.0 | 6.0 | 0.00 | 0.09 | 0.00 | 95 | 1012.7 |
| 20260903120036 | 44 | 171 | 3.0 | 6.0 | 0.00 | 0.09 | 0.00 | 95 | 1012.7 |
| 20260903114536 | 43 | 193 | 3.0 | 7.0 | 0.00 | 0.09 | 0.00 | 95 | 1012.5 |
| 20260903113039 | 44 | 198 | 4.0 | 9.0 | 0.00 | 0.09 | 0.00 | 95 | 1012.5 |
| 20260903111607 | 44 | 182 | 4.0 | 8.0 | 0.00 | 0.09 | 0.00 | 95 | 1012.4 |
| 20260903110038 | 44 | 182 | 5.0 | 9.0 | 0.00 | 0.09 | 0.00 | 95 | 1012.3 |
| 20260903104532 | 44 | 196 | 2.0 | 7.0 | 0.00 | 0.09 | 0.00 | 95 | 1012.2 |
| 20260903103037 | 44 | 225 | 2.0 | 7.0 | 0.00 | 0.09 | 0.00 | 95 | 1012.2 |
| 20260903101535 | 44 | 182 | 3.0 | 7.0 | 0.00 | 0.09 | 0.00 | 94 | 1012.2 |
| 20260903094533 | 44 | 173 | 1.0 | 4.0 | 0.00 | 0.09 | 0.00 | 94 | 1012.0 |
| 20260903093037 | 44 | 180 | 0.0 | 2.0 | 0.00 | 0.09 | 0.00 | 94 | 1012.0 |
| 20260903090036 | 47 | 201 | 0.0 | 2.0 | 0.00 | 0.09 | 0.00 | 94 | 1012.1 |
| 20260903084537 | 48 | 164 | 1.0 | 4.0 | 0.00 | 0.09 | 0.00 | 94 | 1012.0 |
| 20260903083037 | 49 | 156 | 2.0 | 4.0 | 0.00 | 0.09 | 0.00 | 94 | 1011.9 |
| 20260903081536 | 49 | 158 | 3.0 | 7.0 | 0.00 | 0.09 | 0.00 | 94 | 1011.9 |
| 20260903080039 | 49 | 169 | 3.0 | 6.0 | 0.00 | 0.09 | 0.00 | 94 | 1012.1 |
| 20260903074536 | 49 | 153 | 0.0 | 3.0 | 0.00 | 0.09 | 0.00 | 93 | 1011.9 |
| 20260903073031 | 49 | 148 | 0.0 | 2.0 | 0.01 | 0.09 | 0.00 | 93 | 1011.7 |
| 20260903071530 | 48 | 168 | 0.0 | 3.0 | 0.01 | 0.09 | 0.00 | 93 | 1011.5 |
| 20260903070030 | 48 | 218 | 0.0 | 3.0 | 0.01 | 0.09 | 0.00 | 92 | 1011.5 |
| 20260903064532 | 48 | 163 | 2.0 | 4.0 | 0.01 | 0.09 | 0.08 | 92 | 1011.4 |
| 20260903061535 | 50 | 67 | 0.0 | 0.0 | 0.00 | 0.08 | 0.08 | 92 | 1011.5 |
| 20260903060111 | 52 | 67 | 0.0 | 0.0 | 0.00 | 0.08 | 0.08 | 92 | 1011.4 |
| 20260903054536 | 53 | 67 | 0.0 | 3.0 | 0.00 | 0.08 | 0.08 | 92 | 1011.6 |
| 20260903053029 | 53 | 47 | 0.0 | 3.0 | 0.00 | 0.08 | 0.08 | 91 | 1011.7 |
| 20260903051532 | 53 | 45 | 0.0 | 0.0 | 0.00 | 0.08 | 0.08 | 91 | 1011.5 |
| 20260903050037 | 54 | 50 | 1.0 | 4.0 | 0.00 | 0.08 | 0.08 | 91 | 1011.3 |
| 20260903044532 | 54 | 53 | 0.0 | 3.0 | 0.00 | 0.08 | 0.08 | 90 | 1011.2 |
| 20260903043149 | 54 | 67 | 0.0 | 3.0 | 0.01 | 0.08 | 0.08 | 89 | 1011.3 |
| 20260903041537 | 54 | 72 | 0.0 | 2.0 | 0.02 | 0.08 | 0.08 | 88 | 1011.0 |
| 20260903040033 | 53 | 225 | 0.0 | 0.0 | 0.08 | 0.08 | 0.08 | 86 | 1010.8 |
| 20260903034532 | 53 | 237 | 0.0 | 4.0 | 0.08 | 0.08 | 0.07 | 85 | 1010.6 |
| 20260903033032 | 55 | 264 | 2.0 | 4.0 | 0.07 | 0.07 | 0.06 | 81 | 1010.4 |
| 20260903031531 | 58 | 268 | 5.0 | 15.0 | 0.06 | 0.06 | 0.00 | 80 | 1010.3 |
| 20260903030148 | 58 | 244 | 4.0 | 12.0 | 0.00 | 0.00 | 0.00 | 79 | 1009.8 |
| 20260903024537 | 58 | 200 | 3.0 | 8.0 | 0.00 | 0.00 | 0.00 | 79 | 1009.5 |
| 20260903021537 | 59 | 174 | 4.0 | 8.0 | 0.00 | 0.00 | 0.00 | 79 | 1009.3 |
| 20260903014536 | 58 | 159 | 1.0 | 5.0 | 0.00 | 0.00 | 0.00 | 78 | 1009.4 |